sensor_id;sensor_type;location;lat;lon;timestamp;pressure;altitude;pressure_sealevel;temperature;humidity
54369;BME280;40266;52.434;17.056;2023-04-02T00:01:33;100035.06;;;2.90;92.83
54369;BME280;40266;52.434;17.056;2023-04-02T00:04:22;100034.90;;;2.90;92.86
54369;BME280;40266;52.434;17.056;2023-04-02T00:07:24;100035.77;;;2.91;92.86
54369;BME280;40266;52.434;17.056;2023-04-02T00:10:28;100040.77;;;2.92;92.67
54369;BME280;40266;52.434;17.056;2023-04-02T00:13:18;100039.55;;;2.92;92.79
54369;BME280;40266;52.434;17.056;2023-04-02T00:16:07;100048.89;;;2.95;92.78
54369;BME280;40266;52.434;17.056;2023-04-02T00:18:57;100049.23;;;2.95;92.79
54369;BME280;40266;52.434;17.056;2023-04-02T00:21:43;100052.34;;;2.97;92.86
54369;BME280;40266;52.434;17.056;2023-04-02T00:24:28;100055.11;;;2.98;92.70
54369;BME280;40266;52.434;17.056;2023-04-02T00:27:13;100055.80;;;2.97;92.61
54369;BME280;40266;52.434;17.056;2023-04-02T00:29:58;100060.95;;;2.96;92.68
54369;BME280;40266;52.434;17.056;2023-04-02T00:32:43;100061.31;;;2.98;92.77
54369;BME280;40266;52.434;17.056;2023-04-02T00:35:28;100063.04;;;2.97;92.68
54369;BME280;40266;52.434;17.056;2023-04-02T00:38:21;100065.98;;;2.99;92.77
54369;BME280;40266;52.434;17.056;2023-04-02T00:41:06;100069.95;;;3.00;92.86
54369;BME280;40266;52.434;17.056;2023-04-02T00:43:51;100071.86;;;3.00;92.67
54369;BME280;40266;52.434;17.056;2023-04-02T00:46:44;100074.25;;;3.00;92.67
54369;BME280;40266;52.434;17.056;2023-04-02T00:49:38;100073.92;;;3.00;92.73
54369;BME280;40266;52.434;17.056;2023-04-02T00:52:25;100077.87;;;2.99;92.63
54369;BME280;40266;52.434;17.056;2023-04-02T00:58:24;100080.27;;;2.94;92.41
54369;BME280;40266;52.434;17.056;2023-04-02T01:01:17;100082.34;;;2.94;92.55
54369;BME280;40266;52.434;17.056;2023-04-02T01:04:03;100083.73;;;2.94;92.64
54369;BME280;40266;52.434;17.056;2023-04-02T01:06:47;100084.76;;;2.91;92.21
54369;BME280;40266;52.434;17.056;2023-04-02T01:22:16;100099.08;;;2.93;92.43
54369;BME280;40266;52.434;17.056;2023-04-02T01:25:04;100096.13;;;2.91;92.28
54369;BME280;40266;52.434;17.056;2023-04-02T01:27:56;100102.51;;;2.92;92.37
54369;BME280;40266;52.434;17.056;2023-04-02T01:30:45;100106.14;;;2.92;92.24
54369;BME280;40266;52.434;17.056;2023-04-02T01:33:32;100109.76;;;2.91;92.32
54369;BME280;40266;52.434;17.056;2023-04-02T01:45:18;100120.27;;;2.90;92.20
54369;BME280;40266;52.434;17.056;2023-04-02T01:48:21;100124.41;;;2.90;92.15
54369;BME280;40266;52.434;17.056;2023-04-02T01:51:07;100127.33;;;2.89;92.12
54369;BME280;40266;52.434;17.056;2023-04-02T01:53:50;100133.55;;;2.91;92.27
54369;BME280;40266;52.434;17.056;2023-04-02T01:56:35;100134.08;;;2.91;92.25
54369;BME280;40266;52.434;17.056;2023-04-02T01:59:20;100136.85;;;2.93;92.08
54369;BME280;40266;52.434;17.056;2023-04-02T02:02:11;100139.95;;;2.94;92.27
54369;BME280;40266;52.434;17.056;2023-04-02T02:04:55;100142.02;;;2.94;92.10
54369;BME280;40266;52.434;17.056;2023-04-02T02:07:38;100143.05;;;2.94;92.03
54369;BME280;40266;52.434;17.056;2023-04-02T02:10:32;100146.86;;;2.93;91.91
54369;BME280;40266;52.434;17.056;2023-04-02T02:13:16;100147.52;;;2.92;91.98
54369;BME280;40266;52.434;17.056;2023-04-02T02:16:00;100150.14;;;2.93;91.92
54369;BME280;40266;52.434;17.056;2023-04-02T02:18:48;100157.03;;;2.93;91.83
54369;BME280;40266;52.434;17.056;2023-04-02T02:22:04;100157.38;;;2.94;91.87
54369;BME280;40266;52.434;17.056;2023-04-02T02:24:51;100159.45;;;2.93;91.79
54369;BME280;40266;52.434;17.056;2023-04-02T02:31:13;100167.72;;;2.93;91.42
54369;BME280;40266;52.434;17.056;2023-04-02T02:34:05;100170.64;;;2.92;91.47
54369;BME280;40266;52.434;17.056;2023-04-02T02:36:56;100174.98;;;2.93;91.43
54369;BME280;40266;52.434;17.056;2023-04-02T02:39:44;100179.13;;;2.95;91.44
54369;BME280;40266;52.434;17.056;2023-04-02T02:42:38;100183.77;;;2.95;91.27
54369;BME280;40266;52.434;17.056;2023-04-02T02:45:27;100186.36;;;2.94;90.91
54369;BME280;40266;52.434;17.056;2023-04-02T02:48:13;100190.67;;;2.93;91.28
54369;BME280;40266;52.434;17.056;2023-04-02T02:50:59;100199.28;;;2.93;91.06
54369;BME280;40266;52.434;17.056;2023-04-02T02:53:50;100202.55;;;2.91;90.88
54369;BME280;40266;52.434;17.056;2023-04-02T02:56:40;100208.74;;;2.89;90.57
54369;BME280;40266;52.434;17.056;2023-04-02T02:59:27;100204.25;;;2.87;90.51
54369;BME280;40266;52.434;17.056;2023-04-02T03:02:13;100211.33;;;2.87;90.64
54369;BME280;40266;52.434;17.056;2023-04-02T03:04:59;100214.08;;;2.86;90.56
54369;BME280;40266;52.434;17.056;2023-04-02T03:07:45;100221.48;;;2.84;90.38
54369;BME280;40266;52.434;17.056;2023-04-02T03:10:39;100230.96;;;2.84;90.33
54369;BME280;40266;52.434;17.056;2023-04-02T03:13:29;100236.63;;;2.81;90.28
54369;BME280;40266;52.434;17.056;2023-04-02T03:16:37;100234.55;;;2.79;90.15
54369;BME280;40266;52.434;17.056;2023-04-02T03:22:41;100244.52;;;2.75;89.90
54369;BME280;40266;52.434;17.056;2023-04-02T03:25:43;100251.22;;;2.71;89.66
54369;BME280;40266;52.434;17.056;2023-04-02T03:28:32;100245.33;;;2.68;89.61
54369;BME280;40266;52.434;17.056;2023-04-02T03:31:47;100247.91;;;2.68;89.42
54369;BME280;40266;52.434;17.056;2023-04-02T03:34:57;100252.37;;;2.64;89.22
54369;BME280;40266;52.434;17.056;2023-04-02T03:37:43;100254.05;;;2.60;89.02
54369;BME280;40266;52.434;17.056;2023-04-02T03:40:38;100264.40;;;2.58;88.68
54369;BME280;40266;52.434;17.056;2023-04-02T03:43:25;100264.19;;;2.56;88.59
54369;BME280;40266;52.434;17.056;2023-04-02T03:49:25;100274.70;;;2.55;88.80
54369;BME280;40266;52.434;17.056;2023-04-02T03:52:13;100279.70;;;2.54;88.67
54369;BME280;40266;52.434;17.056;2023-04-02T03:54:59;100285.04;;;2.54;88.71
54369;BME280;40266;52.434;17.056;2023-04-02T04:03:53;100296.41;;;2.53;88.39
54369;BME280;40266;52.434;17.056;2023-04-02T04:06:41;100301.40;;;2.51;88.03
54369;BME280;40266;52.434;17.056;2023-04-02T04:09:35;100310.34;;;2.49;88.00
54369;BME280;40266;52.434;17.056;2023-04-02T04:12:35;100314.13;;;2.49;88.41
54369;BME280;40266;52.434;17.056;2023-04-02T04:15:36;100321.89;;;2.50;88.31
54369;BME280;40266;52.434;17.056;2023-04-02T04:18:55;100321.55;;;2.50;88.05
54369;BME280;40266;52.434;17.056;2023-04-02T04:21:47;100332.05;;;2.48;87.96
54369;BME280;40266;52.434;17.056;2023-04-02T04:24:35;100337.23;;;2.49;87.62
54369;BME280;40266;52.434;17.056;2023-04-02T04:30:25;100346.19;;;2.49;87.36
54369;BME280;40266;52.434;17.056;2023-04-02T04:33:40;100351.36;;;2.49;87.51
54369;BME280;40266;52.434;17.056;2023-04-02T04:36:39;100362.57;;;2.50;87.34
54369;BME280;40266;52.434;17.056;2023-04-02T04:39:46;100373.95;;;2.49;86.34
54369;BME280;40266;52.434;17.056;2023-04-02T04:42:34;100366.68;;;2.47;86.18
54369;BME280;40266;52.434;17.056;2023-04-02T04:45:46;100363.05;;;2.45;86.13
54369;BME280;40266;52.434;17.056;2023-04-02T04:48:46;100370.48;;;2.47;85.98
54369;BME280;40266;52.434;17.056;2023-04-02T04:51:41;100379.95;;;2.47;85.77
54369;BME280;40266;52.434;17.056;2023-04-02T04:54:27;100385.29;;;2.46;85.66
54369;BME280;40266;52.434;17.056;2023-04-02T04:57:34;100388.41;;;2.47;85.46
54369;BME280;40266;52.434;17.056;2023-04-02T05:03:58;100391.67;;;2.46;85.37
54369;BME280;40266;52.434;17.056;2023-04-02T05:06:50;100397.71;;;2.48;85.41
54369;BME280;40266;52.434;17.056;2023-04-02T05:09:41;100406.36;;;2.49;85.77
54369;BME280;40266;52.434;17.056;2023-04-02T05:12:36;100416.02;;;2.50;85.30
54369;BME280;40266;52.434;17.056;2023-04-02T05:15:31;100415.54;;;2.53;85.24
54369;BME280;40266;52.434;17.056;2023-04-02T05:18:30;100426.09;;;2.56;85.08
54369;BME280;40266;52.434;17.056;2023-04-02T05:21:16;100424.02;;;2.57;84.91
54369;BME280;40266;52.434;17.056;2023-04-02T05:26:57;100434.41;;;2.60;85.06
54369;BME280;40266;52.434;17.056;2023-04-02T05:29:43;100435.27;;;2.60;84.81
54369;BME280;40266;52.434;17.056;2023-04-02T05:32:33;100440.59;;;2.59;84.82
54369;BME280;40266;52.434;17.056;2023-04-02T05:35:23;100439.23;;;2.61;84.57
54369;BME280;40266;52.434;17.056;2023-04-02T05:38:20;100440.27;;;2.60;84.49
54369;BME280;40266;52.434;17.056;2023-04-02T05:41:32;100444.08;;;2.62;84.60
54369;BME280;40266;52.434;17.056;2023-04-02T05:44:29;100451.68;;;2.62;84.46
54369;BME280;40266;52.434;17.056;2023-04-02T05:47:21;100453.06;;;2.64;84.75
54369;BME280;40266;52.434;17.056;2023-04-02T05:53:08;100459.52;;;2.70;84.95
54369;BME280;40266;52.434;17.056;2023-04-02T05:58:56;100471.25;;;2.71;84.35
54369;BME280;40266;52.434;17.056;2023-04-02T06:01:58;100469.34;;;2.69;83.85
54369;BME280;40266;52.434;17.056;2023-04-02T06:05:05;100477.41;;;2.68;83.42
54369;BME280;40266;52.434;17.056;2023-04-02T06:07:57;100476.90;;;2.67;83.76
54369;BME280;40266;52.434;17.056;2023-04-02T06:11:12;100481.39;;;2.67;83.39
54369;BME280;40266;52.434;17.056;2023-04-02T06:13:57;100488.98;;;2.68;83.53
54369;BME280;40266;52.434;17.056;2023-04-02T06:16:43;100491.61;;;2.72;83.65
54369;BME280;40266;52.434;17.056;2023-04-02T06:19:36;100502.02;;;2.77;83.10
54369;BME280;40266;52.434;17.056;2023-04-02T06:25:30;100506.55;;;2.82;82.96
54369;BME280;40266;52.434;17.056;2023-04-02T06:28:20;100510.73;;;2.86;83.13
54369;BME280;40266;52.434;17.056;2023-04-02T06:31:26;100519.06;;;2.90;83.07
54369;BME280;40266;52.434;17.056;2023-04-02T06:34:15;100518.20;;;2.90;82.78
54369;BME280;40266;52.434;17.056;2023-04-02T06:37:18;100525.67;;;2.94;82.85
54369;BME280;40266;52.434;17.056;2023-04-02T06:43:24;100529.95;;;3.07;82.79
54369;BME280;40266;52.434;17.056;2023-04-02T06:49:20;100533.98;;;3.13;82.21
54369;BME280;40266;52.434;17.056;2023-04-02T06:52:24;100539.38;;;3.17;82.18
54369;BME280;40266;52.434;17.056;2023-04-02T06:55:31;100543.58;;;3.25;81.93
54369;BME280;40266;52.434;17.056;2023-04-02T06:58:18;100551.95;;;3.32;82.11
54369;BME280;40266;52.434;17.056;2023-04-02T07:01:03;100559.63;;;3.40;82.48
54369;BME280;40266;52.434;17.056;2023-04-02T07:03:55;100562.27;;;3.45;82.14
54369;BME280;40266;52.434;17.056;2023-04-02T07:06:44;100561.60;;;3.48;82.28
54369;BME280;40266;52.434;17.056;2023-04-02T07:09:32;100567.50;;;3.50;82.35
54369;BME280;40266;52.434;17.056;2023-04-02T07:12:24;100573.02;;;3.50;81.84
54369;BME280;40266;52.434;17.056;2023-04-02T07:15:15;100573.68;;;3.47;81.86
54369;BME280;40266;52.434;17.056;2023-04-02T07:18:00;100578.02;;;3.48;81.84
54369;BME280;40266;52.434;17.056;2023-04-02T07:20:44;100582.48;;;3.46;81.85
54369;BME280;40266;52.434;17.056;2023-04-02T07:23:29;100588.86;;;3.46;81.66
54369;BME280;40266;52.434;17.056;2023-04-02T07:26:18;100588.02;;;3.47;81.80
54369;BME280;40266;52.434;17.056;2023-04-02T07:29:05;100594.10;;;3.50;82.01
54369;BME280;40266;52.434;17.056;2023-04-02T07:31:49;100593.24;;;3.53;81.98
54369;BME280;40266;52.434;17.056;2023-04-02T07:34:35;100601.73;;;3.55;81.77
54369;BME280;40266;52.434;17.056;2023-04-02T07:37:19;100610.20;;;3.55;81.43
54369;BME280;40266;52.434;17.056;2023-04-02T07:40:16;100611.55;;;3.52;81.42
54369;BME280;40266;52.434;17.056;2023-04-02T07:43:02;100614.52;;;3.54;81.68
54369;BME280;40266;52.434;17.056;2023-04-02T07:45:46;100617.14;;;3.58;81.63
54369;BME280;40266;52.434;17.056;2023-04-02T07:48:30;100618.88;;;3.59;81.52
54369;BME280;40266;52.434;17.056;2023-04-02T07:51:16;100627.00;;;3.61;81.51
54369;BME280;40266;52.434;17.056;2023-04-02T07:54:01;100630.65;;;3.63;81.29
54369;BME280;40266;52.434;17.056;2023-04-02T07:56:44;100630.81;;;3.61;81.13
54369;BME280;40266;52.434;17.056;2023-04-02T07:59:28;100639.30;;;3.63;81.58
54369;BME280;40266;52.434;17.056;2023-04-02T08:02:21;100646.58;;;3.66;81.66
54369;BME280;40266;52.434;17.056;2023-04-02T08:05:06;100648.85;;;3.69;81.57
54369;BME280;40266;52.434;17.056;2023-04-02T08:07:54;100656.80;;;3.69;81.51
54369;BME280;40266;52.434;17.056;2023-04-02T08:10:39;100662.80;;;3.66;81.12
54369;BME280;40266;52.434;17.056;2023-04-02T08:13:25;100667.14;;;3.67;81.40
54369;BME280;40266;52.434;17.056;2023-04-02T08:16:09;100670.45;;;3.70;81.61
54369;BME280;40266;52.434;17.056;2023-04-02T08:18:54;100663.09;;;3.75;81.67
54369;BME280;40266;52.434;17.056;2023-04-02T08:21:39;100664.55;;;3.86;82.07
54369;BME280;40266;52.434;17.056;2023-04-02T08:24:23;100672.63;;;3.97;81.78
54369;BME280;40266;52.434;17.056;2023-04-02T08:27:06;100675.11;;;4.04;81.69
54369;BME280;40266;52.434;17.056;2023-04-02T08:29:50;100674.84;;;4.14;81.70
54369;BME280;40266;52.434;17.056;2023-04-02T08:32:34;100680.14;;;4.24;81.55
54369;BME280;40266;52.434;17.056;2023-04-02T08:35:20;100682.80;;;4.34;81.26
54369;BME280;40266;52.434;17.056;2023-04-02T08:38:05;100688.38;;;4.38;80.91
54369;BME280;40266;52.434;17.056;2023-04-02T08:40:52;100690.10;;;4.38;80.50
54369;BME280;40266;52.434;17.056;2023-04-02T08:44:12;100691.89;;;4.47;80.84
54369;BME280;40266;52.434;17.056;2023-04-02T08:47:04;100699.45;;;4.62;80.42
54369;BME280;40266;52.434;17.056;2023-04-02T08:49:59;100696.52;;;4.65;79.81
54369;BME280;40266;52.434;17.056;2023-04-02T08:52:47;100693.81;;;4.73;80.10
54369;BME280;40266;52.434;17.056;2023-04-02T08:55:39;100692.84;;;4.84;80.10
54369;BME280;40266;52.434;17.056;2023-04-02T09:01:29;100696.64;;;5.11;79.60
54369;BME280;40266;52.434;17.056;2023-04-02T09:04:21;100704.85;;;5.24;79.64
54369;BME280;40266;52.434;17.056;2023-04-02T09:07:11;100707.42;;;5.24;78.78
54369;BME280;40266;52.434;17.056;2023-04-02T09:09:56;100713.67;;;5.24;77.88
54369;BME280;40266;52.434;17.056;2023-04-02T09:12:42;100718.33;;;5.20;77.95
54369;BME280;40266;52.434;17.056;2023-04-02T09:15:33;100726.79;;;5.16;78.02
54369;BME280;40266;52.434;17.056;2023-04-02T09:18:19;100726.09;;;5.14;77.01
54369;BME280;40266;52.434;17.056;2023-04-02T09:21:30;100731.63;;;5.14;77.93
54369;BME280;40266;52.434;17.056;2023-04-02T09:24:15;100729.91;;;5.15;77.77
54369;BME280;40266;52.434;17.056;2023-04-02T09:26:58;100736.66;;;5.17;77.12
54369;BME280;40266;52.434;17.056;2023-04-02T09:29:47;100741.32;;;5.17;77.11
54369;BME280;40266;52.434;17.056;2023-04-02T09:32:53;100744.10;;;5.15;76.02
54369;BME280;40266;52.434;17.056;2023-04-02T09:35:54;100748.77;;;5.15;76.84
54369;BME280;40266;52.434;17.056;2023-04-02T09:38:38;100751.92;;;5.22;77.23
54369;BME280;40266;52.434;17.056;2023-04-02T09:41:26;100750.77;;;5.32;76.99
54369;BME280;40266;52.434;17.056;2023-04-02T09:44:22;100757.03;;;5.38;77.02
54369;BME280;40266;52.434;17.056;2023-04-02T09:47:22;100760.00;;;5.43;76.32
54369;BME280;40266;52.434;17.056;2023-04-02T09:53:28;100767.13;;;5.48;76.42
54369;BME280;40266;52.434;17.056;2023-04-02T09:56:16;100770.10;;;5.53;76.86
54369;BME280;40266;52.434;17.056;2023-04-02T09:59:29;100773.25;;;5.60;77.28
54369;BME280;40266;52.434;17.056;2023-04-02T10:02:27;100776.18;;;5.59;76.25
54369;BME280;40266;52.434;17.056;2023-04-02T10:05:20;100779.98;;;5.54;76.25
54369;BME280;40266;52.434;17.056;2023-04-02T10:08:25;100784.83;;;5.55;76.45
54369;BME280;40266;52.434;17.056;2023-04-02T10:11:20;100791.80;;;5.60;76.42
54369;BME280;40266;52.434;17.056;2023-04-02T10:14:22;100789.36;;;5.61;76.10
54369;BME280;40266;52.434;17.056;2023-04-02T10:17:30;100794.04;;;5.56;75.80
54369;BME280;40266;52.434;17.056;2023-04-02T10:20:21;100798.34;;;5.53;75.78
54369;BME280;40266;52.434;17.056;2023-04-02T10:23:05;100800.10;;;5.57;75.70
54369;BME280;40266;52.434;17.056;2023-04-02T10:29:54;100811.02;;;5.61;75.48
54369;BME280;40266;52.434;17.056;2023-04-02T10:32:25;100814.31;;;5.60;75.06
54369;BME280;40266;52.434;17.056;2023-04-02T10:50:30;100831.10;;;5.92;74.87
54369;BME280;40266;52.434;17.056;2023-04-02T10:53:18;100838.05;;;5.93;73.60
54369;BME280;40266;52.434;17.056;2023-04-02T10:56:06;100839.77;;;5.92;73.32
54369;BME280;40266;52.434;17.056;2023-04-02T10:58:58;100842.86;;;5.87;72.89
54369;BME280;40266;52.434;17.056;2023-04-02T11:01:46;100847.54;;;5.86;73.06
54369;BME280;40266;52.434;17.056;2023-04-02T11:04:43;100856.23;;;5.89;72.95
54369;BME280;40266;52.434;17.056;2023-04-02T11:07:32;100858.87;;;5.94;72.62
54369;BME280;40266;52.434;17.056;2023-04-02T11:10:31;100862.20;;;6.01;72.74
54369;BME280;40266;52.434;17.056;2023-04-02T11:13:35;100864.30;;;6.06;72.45
54369;BME280;40266;52.434;17.056;2023-04-02T11:16:20;100869.70;;;6.12;72.71
54369;BME280;40266;52.434;17.056;2023-04-02T11:22:23;100878.75;;;6.22;70.93
54369;BME280;40266;52.434;17.056;2023-04-02T11:25:20;100880.48;;;6.20;70.38
54369;BME280;40266;52.434;17.056;2023-04-02T11:28:28;100878.59;;;6.25;71.18
54369;BME280;40266;52.434;17.056;2023-04-02T11:31:19;100886.59;;;6.28;70.64
54369;BME280;40266;52.434;17.056;2023-04-02T11:34:04;100899.96;;;6.30;71.01
54369;BME280;40266;52.434;17.056;2023-04-02T11:39:54;100905.48;;;6.30;70.03
54369;BME280;40266;52.434;17.056;2023-04-02T11:42:49;100905.80;;;6.20;69.28
54369;BME280;40266;52.434;17.056;2023-04-02T11:48:49;100919.60;;;6.04;70.34
54369;BME280;40266;52.434;17.056;2023-04-02T11:54:22;100919.56;;;5.99;69.98
54369;BME280;40266;52.434;17.056;2023-04-02T11:57:37;100925.85;;;6.04;69.20
54369;BME280;40266;52.434;17.056;2023-04-02T12:09:51;100936.08;;;6.45;69.24
54369;BME280;40266;52.434;17.056;2023-04-02T12:12:37;100935.77;;;6.51;69.36
54369;BME280;40266;52.434;17.056;2023-04-02T12:15:55;100935.59;;;6.52;69.27
54369;BME280;40266;52.434;17.056;2023-04-02T12:18:43;100933.55;;;6.65;69.45
54369;BME280;40266;52.434;17.056;2023-04-02T12:21:29;100935.64;;;6.68;68.50
54369;BME280;40266;52.434;17.056;2023-04-02T12:24:21;100942.08;;;6.73;69.38
54369;BME280;40266;52.434;17.056;2023-04-02T12:27:15;100948.17;;;6.80;68.14
54369;BME280;40266;52.434;17.056;2023-04-02T12:30:32;100954.08;;;6.80;68.77
54369;BME280;40266;52.434;17.056;2023-04-02T12:33:26;100958.24;;;6.82;69.04
54369;BME280;40266;52.434;17.056;2023-04-02T12:36:19;100954.60;;;6.85;68.69
54369;BME280;40266;52.434;17.056;2023-04-02T12:39:15;100963.98;;;6.85;68.78
54369;BME280;40266;52.434;17.056;2023-04-02T12:41:59;100970.21;;;6.83;68.40
54369;BME280;40266;52.434;17.056;2023-04-02T12:44:47;100970.55;;;6.79;67.58
54369;BME280;40266;52.434;17.056;2023-04-02T12:47:32;100967.92;;;6.73;68.17
54369;BME280;40266;52.434;17.056;2023-04-02T12:50:17;100969.65;;;6.70;67.28
54369;BME280;40266;52.434;17.056;2023-04-02T12:53:55;100974.48;;;6.58;67.12
54369;BME280;40266;52.434;17.056;2023-04-02T12:56:21;100980.35;;;6.48;67.29
54369;BME280;40266;52.434;17.056;2023-04-02T12:59:29;100983.27;;;6.42;67.04
54369;BME280;40266;52.434;17.056;2023-04-02T13:02:22;100984.96;;;6.34;67.29
54369;BME280;40266;52.434;17.056;2023-04-02T13:05:07;100986.52;;;6.32;67.10
54369;BME280;40266;52.434;17.056;2023-04-02T13:07:50;100989.97;;;6.30;67.44
54369;BME280;40266;52.434;17.056;2023-04-02T13:10:39;100994.96;;;6.25;66.87
54369;BME280;40266;52.434;17.056;2023-04-02T13:13:40;100997.90;;;6.21;67.17
54369;BME280;40266;52.434;17.056;2023-04-02T13:16:34;101002.22;;;6.17;67.11
54369;BME280;40266;52.434;17.056;2023-04-02T13:19:26;101002.38;;;6.17;67.52
54369;BME280;40266;52.434;17.056;2023-04-02T13:22:29;101004.11;;;6.16;66.77
54369;BME280;40266;52.434;17.056;2023-04-02T13:25:14;101001.82;;;6.11;67.06
54369;BME280;40266;52.434;17.056;2023-04-02T13:27:58;101002.34;;;6.11;67.46
54369;BME280;40266;52.434;17.056;2023-04-02T13:30:42;101009.13;;;6.13;67.09
54369;BME280;40266;52.434;17.056;2023-04-02T13:33:27;101005.80;;;6.10;66.83
54369;BME280;40266;52.434;17.056;2023-04-02T13:36:15;101011.16;;;6.08;66.91
54369;BME280;40266;52.434;17.056;2023-04-02T13:38:59;101014.12;;;6.07;66.58
54369;BME280;40266;52.434;17.056;2023-04-02T13:41:53;101019.48;;;6.05;66.65
54369;BME280;40266;52.434;17.056;2023-04-02T13:44:38;101018.44;;;6.05;66.88
54369;BME280;40266;52.434;17.056;2023-04-02T13:47:22;101022.42;;;6.06;66.66
54369;BME280;40266;52.434;17.056;2023-04-02T13:50:08;101025.05;;;6.06;66.49
54369;BME280;40266;52.434;17.056;2023-04-02T13:53:05;101028.69;;;6.08;66.19
54369;BME280;40266;52.434;17.056;2023-04-02T13:55:55;101034.25;;;6.10;65.79
54369;BME280;40266;52.434;17.056;2023-04-02T13:58:38;101031.99;;;6.10;65.05
54369;BME280;40266;52.434;17.056;2023-04-02T14:01:24;101034.79;;;6.13;65.58
54369;BME280;40266;52.434;17.056;2023-04-02T14:04:09;101037.25;;;6.19;65.28
54369;BME280;40266;52.434;17.056;2023-04-02T14:10:12;101039.71;;;6.23;65.03
54369;BME280;40266;52.434;17.056;2023-04-02T14:13:04;101038.36;;;6.29;65.25
54369;BME280;40266;52.434;17.056;2023-04-02T14:16:30;101041.14;;;6.31;64.02
54369;BME280;40266;52.434;17.056;2023-04-02T14:31:57;101059.73;;;6.35;63.42
54369;BME280;40266;52.434;17.056;2023-04-02T14:35:02;101065.80;;;6.37;64.32
54369;BME280;40266;52.434;17.056;2023-04-02T14:40:58;101072.21;;;6.35;63.44
54369;BME280;40266;52.434;17.056;2023-04-02T14:43:55;101073.60;;;6.36;63.68
54369;BME280;40266;52.434;17.056;2023-04-02T14:46:40;101076.22;;;6.37;64.13
54369;BME280;40266;52.434;17.056;2023-04-02T14:49:35;101079.17;;;6.38;63.81
54369;BME280;40266;52.434;17.056;2023-04-02T14:52:23;101087.34;;;6.39;63.24
54369;BME280;40266;52.434;17.056;2023-04-02T14:55:17;101082.48;;;6.38;63.28
54369;BME280;40266;52.434;17.056;2023-04-02T14:58:17;101079.36;;;6.40;63.56
54369;BME280;40266;52.434;17.056;2023-04-02T15:01:09;101079.02;;;6.41;63.72
54369;BME280;40266;52.434;17.056;2023-04-02T15:04:01;101080.95;;;6.44;63.75
54369;BME280;40266;52.434;17.056;2023-04-02T15:06:51;101081.65;;;6.44;63.41
54369;BME280;40266;52.434;17.056;2023-04-02T15:09:48;101086.67;;;6.45;62.89
54369;BME280;40266;52.434;17.056;2023-04-02T15:12:35;101086.86;;;6.45;62.65
54369;BME280;40266;52.434;17.056;2023-04-02T15:18:23;101097.45;;;6.46;62.72
54369;BME280;40266;52.434;17.056;2023-04-02T15:27:21;101108.21;;;6.46;62.02
54369;BME280;40266;52.434;17.056;2023-04-02T15:30:22;101113.60;;;6.46;61.89
54369;BME280;40266;52.434;17.056;2023-04-02T15:33:26;101118.79;;;6.46;61.39
54369;BME280;40266;52.434;17.056;2023-04-02T15:43:19;101141.48;;;6.42;59.44
54369;BME280;40266;52.434;17.056;2023-04-02T15:52:44;101149.11;;;6.40;56.79
54369;BME280;40266;52.434;17.056;2023-04-02T15:55:38;101152.94;;;6.42;57.60
54369;BME280;40266;52.434;17.056;2023-04-02T15:58:53;101157.83;;;6.47;58.05
54369;BME280;40266;52.434;17.056;2023-04-02T16:10:46;101175.59;;;6.54;56.64
54369;BME280;40266;52.434;17.056;2023-04-02T16:13:39;101181.67;;;6.54;56.54
54369;BME280;40266;52.434;17.056;2023-04-02T16:16:35;101186.00;;;6.54;55.80
54369;BME280;40266;52.434;17.056;2023-04-02T16:19:33;101193.09;;;6.52;56.12
54369;BME280;40266;52.434;17.056;2023-04-02T16:22:27;101194.63;;;6.49;55.80
54369;BME280;40266;52.434;17.056;2023-04-02T16:25:17;101201.17;;;6.44;55.99
54369;BME280;40266;52.434;17.056;2023-04-02T16:28:07;101202.36;;;6.38;56.33
54369;BME280;40266;52.434;17.056;2023-04-02T16:31:07;101205.62;;;6.33;56.36
54369;BME280;40266;52.434;17.056;2023-04-02T16:34:16;101211.63;;;6.28;56.89
54369;BME280;40266;52.434;17.056;2023-04-02T16:37:22;101217.48;;;6.23;56.78
54369;BME280;40266;52.434;17.056;2023-04-02T16:40:26;101222.98;;;6.17;56.87
54369;BME280;40266;52.434;17.056;2023-04-02T16:43:39;101231.05;;;6.11;56.56
54369;BME280;40266;52.434;17.056;2023-04-02T16:58:28;101257.26;;;5.65;55.25
54369;BME280;40266;52.434;17.056;2023-04-02T17:01:41;101259.36;;;5.54;55.16
54369;BME280;40266;52.434;17.056;2023-04-02T17:07:50;101273.92;;;5.28;54.93
54369;BME280;40266;52.434;17.056;2023-04-02T17:14:41;101286.90;;;5.04;54.68
54369;BME280;40266;52.434;17.056;2023-04-02T17:17:08;101300.58;;;4.92;54.53
54369;BME280;40266;52.434;17.056;2023-04-02T17:19:59;101303.18;;;4.82;54.63
54369;BME280;40266;52.434;17.056;2023-04-02T17:22:43;101309.25;;;4.73;54.46
54369;BME280;40266;52.434;17.056;2023-04-02T17:25:46;101314.10;;;4.62;54.75
54369;BME280;40266;52.434;17.056;2023-04-02T17:28:32;101319.63;;;4.52;54.83
54369;BME280;40266;52.434;17.056;2023-04-02T17:31:23;101326.55;;;4.42;54.98
54369;BME280;40266;52.434;17.056;2023-04-02T17:34:15;101334.16;;;4.34;54.53
54369;BME280;40266;52.434;17.056;2023-04-02T17:37:06;101336.60;;;4.25;55.01
54369;BME280;40266;52.434;17.056;2023-04-02T17:43:35;101349.69;;;4.05;55.11
54369;BME280;40266;52.434;17.056;2023-04-02T17:46:37;101352.98;;;3.96;55.36
54369;BME280;40266;52.434;17.056;2023-04-02T17:55:45;101373.86;;;3.71;56.73
54369;BME280;40266;52.434;17.056;2023-04-02T18:14:50;101411.16;;;3.26;57.43
54369;BME280;40266;52.434;17.056;2023-04-02T18:20:35;101426.92;;;3.14;58.16
54369;BME280;40266;52.434;17.056;2023-04-02T18:23:32;101430.20;;;3.07;58.13
54369;BME280;40266;52.434;17.056;2023-04-02T18:36:18;101449.98;;;2.85;58.21
54369;BME280;40266;52.434;17.056;2023-04-02T18:39:18;101452.95;;;2.79;58.02
54369;BME280;40266;52.434;17.056;2023-04-02T18:46:48;101456.56;;;2.66;57.65